createdAt,value
2023-02-19T00:00:40.089Z,100281.00
2023-02-19T00:03:43.170Z,100298.22
2023-02-19T00:06:46.427Z,100293.22
2023-02-19T00:09:51.288Z,100288.00
2023-02-19T00:12:53.438Z,100282.84
2023-02-19T00:15:56.580Z,100295.66
2023-02-19T00:18:59.690Z,100295.34
2023-02-19T00:22:01.894Z,100292.31
2023-02-19T00:25:04.198Z,100288.00
2023-02-19T00:28:06.408Z,100297.34
2023-02-19T00:31:12.435Z,100283.38
2023-02-19T00:34:15.341Z,100282.66
2023-02-19T00:37:17.598Z,100295.22
2023-02-19T00:40:19.759Z,100295.81
2023-02-19T00:43:22.194Z,100307.09
2023-02-19T00:46:40.017Z,100294.19
2023-02-19T00:49:42.197Z,100299.78
2023-02-19T00:52:44.294Z,100298.47
2023-02-19T00:55:46.557Z,100300.72
2023-02-19T00:58:49.307Z,100312.94
2023-02-19T01:01:51.673Z,100310.34
2023-02-19T01:04:53.910Z,100304.78
2023-02-19T01:07:56.108Z,100309.31
2023-02-19T01:10:59.066Z,100313.72
2023-02-19T01:14:01.965Z,100303.63
2023-02-19T01:17:04.236Z,100302.47
2023-02-19T01:20:06.988Z,100281.03
2023-02-19T01:23:10.976Z,100309.00
2023-02-19T01:26:16.221Z,100293.03
2023-02-19T01:29:18.478Z,100290.94
2023-02-19T01:32:20.839Z,100282.56
2023-02-19T01:35:23.185Z,100291.25
2023-02-19T01:38:25.754Z,100291.59
2023-02-19T01:41:27.837Z,100287.66
2023-02-19T01:44:31.156Z,100292.53
2023-02-19T01:47:33.329Z,100301.28
2023-02-19T01:50:50.371Z,100308.25
2023-02-19T01:53:57.192Z,100300.91
2023-02-19T01:56:59.934Z,100296.72
2023-02-19T02:00:07.051Z,100302.66
2023-02-19T02:03:14.502Z,100296.69
2023-02-19T02:06:23.499Z,100295.97
2023-02-19T02:09:46.813Z,100284.03
2023-02-19T02:12:50.467Z,100279.25
2023-02-19T02:15:58.539Z,100261.06
2023-02-19T02:19:38.138Z,100289.25
2023-02-19T02:22:48.882Z,100288.88
2023-02-19T02:25:58.494Z,100271.09
2023-02-19T02:29:37.980Z,100266.69
2023-02-19T02:32:53.367Z,100268.19
2023-02-19T02:36:26.339Z,100279.69
2023-02-19T02:39:29.962Z,100283.53
2023-02-19T02:42:34.756Z,100278.56
2023-02-19T02:45:41.602Z,100268.91
2023-02-19T02:48:54.084Z,100288.81
2023-02-19T02:51:58.251Z,100279.50
2023-02-19T02:55:03.710Z,100286.38
2023-02-19T02:58:08.763Z,100277.53
2023-02-19T03:01:50.689Z,100288.72
2023-02-19T03:05:13.485Z,100288.56
2023-02-19T03:08:26.146Z,100288.91
2023-02-19T03:11:48.240Z,100292.75
2023-02-19T03:15:11.738Z,100284.03
2023-02-19T03:18:32.952Z,100279.72
2023-02-19T03:21:38.212Z,100290.66
2023-02-19T03:25:09.862Z,100286.38
2023-02-19T03:28:16.062Z,100286.38
2023-02-19T03:31:20.921Z,100293.81
2023-02-19T03:34:26.426Z,100296.16
2023-02-19T03:37:44.408Z,100300.94
2023-02-19T03:40:58.739Z,100296.03
2023-02-19T03:44:07.622Z,100289.16
2023-02-19T03:47:13.486Z,100294.16
2023-02-19T03:50:46.179Z,100296.25
2023-02-19T03:54:16.319Z,100295.44
2023-02-19T03:57:23.370Z,100290.78
2023-02-19T04:00:43.944Z,100294.66
2023-02-19T04:04:17.360Z,100286.13
2023-02-19T04:07:19.654Z,100284.50
2023-02-19T04:10:22.699Z,100281.81
2023-02-19T04:13:31.107Z,100281.44
2023-02-19T04:16:35.236Z,100296.13
2023-02-19T04:19:42.035Z,100293.91
2023-02-19T04:22:44.342Z,100289.63
2023-02-19T04:25:48.642Z,100295.28
2023-02-19T04:28:50.778Z,100287.13
2023-02-19T04:31:52.960Z,100288.53
2023-02-19T04:34:55.232Z,100282.34
2023-02-19T04:37:57.388Z,100289.81
2023-02-19T04:40:59.557Z,100275.63
2023-02-19T04:44:01.679Z,100271.09
2023-02-19T04:47:03.907Z,100268.19
2023-02-19T04:50:06.233Z,100268.22
2023-02-19T04:53:08.440Z,100268.03
2023-02-19T04:56:13.243Z,100273.97
2023-02-19T04:59:15.431Z,100275.41
2023-02-19T05:02:17.646Z,100267.03
2023-02-19T05:05:19.813Z,100251.09
2023-02-19T05:08:22.016Z,100254.84
2023-02-19T05:11:24.449Z,100261.56
2023-02-19T05:14:26.646Z,100278.06
2023-02-19T05:17:28.835Z,100285.53
2023-02-19T05:20:30.966Z,100283.88
2023-02-19T05:23:33.268Z,100281.06
2023-02-19T05:26:35.958Z,100280.22
2023-02-19T05:29:38.143Z,100288.53
2023-02-19T05:32:40.460Z,100287.34
2023-02-19T05:35:48.787Z,100295.38
2023-02-19T05:38:55.877Z,100283.97
2023-02-19T05:41:57.976Z,100283.34
2023-02-19T05:45:00.117Z,100288.38
2023-02-19T05:48:03.100Z,100278.81
2023-02-19T05:51:11.914Z,100272.19
2023-02-19T05:54:14.264Z,100284.59
2023-02-19T05:57:16.431Z,100290.97
2023-02-19T06:00:20.044Z,100285.34
2023-02-19T06:03:22.535Z,100279.63
2023-02-19T06:06:25.744Z,100291.13
2023-02-19T06:09:27.946Z,100295.66
2023-02-19T06:12:30.123Z,100293.34
2023-02-19T06:15:32.344Z,100300.06
2023-02-19T06:22:05.225Z,100312.59
2023-02-19T06:25:12.071Z,100292.81
2023-02-19T06:28:14.241Z,100278.78
2023-02-19T06:31:17.485Z,100282.69
2023-02-19T06:34:19.630Z,100281.38
2023-02-19T06:37:21.821Z,100280.97
2023-02-19T06:40:23.966Z,100271.72
2023-02-19T06:43:26.126Z,100270.00
2023-02-19T06:46:28.369Z,100262.56
2023-02-19T06:49:30.601Z,100263.16
2023-02-19T06:52:33.427Z,100277.94
2023-02-19T06:55:35.618Z,100292.25
2023-02-19T06:58:37.806Z,100289.59
2023-02-19T07:01:40.493Z,100279.38
2023-02-19T07:04:42.618Z,100274.50
2023-02-19T07:07:46.082Z,100279.41
2023-02-19T07:10:59.701Z,100295.25
2023-02-19T07:14:03.936Z,100291.22
2023-02-19T07:17:06.143Z,100298.22
2023-02-19T07:20:08.521Z,100299.69
2023-02-19T07:23:10.732Z,100298.81
2023-02-19T07:26:14.997Z,100292.28
2023-02-19T07:29:17.368Z,100290.19
2023-02-19T07:32:19.484Z,100274.38
2023-02-19T07:35:21.659Z,100284.25
2023-02-19T07:38:24.964Z,100281.72
2023-02-19T07:41:27.451Z,100267.47
2023-02-19T07:44:33.267Z,100256.31
2023-02-19T07:47:35.489Z,100254.22
2023-02-19T07:50:37.624Z,100259.84
2023-02-19T07:53:39.786Z,100258.34
2023-02-19T07:56:41.964Z,100271.38
2023-02-19T07:59:44.071Z,100275.66
2023-02-19T08:03:02.166Z,100276.91
2023-02-19T08:06:05.512Z,100290.66
2023-02-19T08:09:08.168Z,100290.50
2023-02-19T08:12:32.196Z,100292.53
2023-02-19T08:15:34.391Z,100307.09
2023-02-19T08:18:36.717Z,100306.53
2023-02-19T08:21:38.867Z,100307.97
2023-02-19T08:24:42.886Z,100313.88
2023-02-19T08:27:45.933Z,100315.34
2023-02-19T08:30:48.385Z,100313.78
2023-02-19T08:33:50.688Z,100320.53
2023-02-19T08:36:52.860Z,100314.66
2023-02-19T08:39:55.015Z,100326.47
2023-02-19T08:43:02.834Z,100320.09
2023-02-19T08:46:07.074Z,100300.28
2023-02-19T08:49:09.294Z,100296.72
2023-02-19T08:52:11.657Z,100299.91
2023-02-19T08:55:14.021Z,100293.69
2023-02-19T08:58:16.454Z,100297.84
2023-02-19T09:01:18.872Z,100295.06
2023-02-19T09:04:21.378Z,100290.66
2023-02-19T09:07:23.731Z,100296.50
2023-02-19T09:10:25.912Z,100298.03
2023-02-19T09:13:28.161Z,100296.16
2023-02-19T09:16:30.258Z,100304.94
2023-02-19T09:19:32.749Z,100296.59
2023-02-19T09:22:35.136Z,100286.41
2023-02-19T09:25:37.271Z,100282.00
2023-02-19T09:28:41.630Z,100292.78
2023-02-19T09:31:44.265Z,100300.19
2023-02-19T09:34:46.500Z,100288.34
2023-02-19T09:37:48.651Z,100277.38
2023-02-19T09:40:51.043Z,100272.38
2023-02-19T09:43:53.318Z,100279.19
2023-02-19T09:46:55.750Z,100260.78
2023-02-19T09:50:09.374Z,100259.06
2023-02-19T09:53:19.648Z,100268.22
2023-02-19T09:56:26.320Z,100261.81
2023-02-19T09:59:44.243Z,100255.78
2023-02-19T10:02:46.529Z,100246.56
2023-02-19T10:05:48.726Z,100239.56
2023-02-19T10:08:53.257Z,100241.00
2023-02-19T10:11:56.224Z,100236.09
2023-02-19T10:15:04.763Z,100225.47
2023-02-19T10:18:09.499Z,100209.00
2023-02-19T10:21:19.926Z,100208.34
2023-02-19T10:24:26.119Z,100207.66
2023-02-19T10:27:31.032Z,100210.22
2023-02-19T10:30:35.142Z,100188.94
2023-02-19T10:33:49.279Z,100172.34
2023-02-19T10:36:52.707Z,100162.91
2023-02-19T10:39:55.334Z,100154.34
2023-02-19T10:42:59.575Z,100157.16
2023-02-19T10:46:08.208Z,100153.81
2023-02-19T10:49:32.345Z,100147.56
2023-02-19T10:52:36.216Z,100148.75
2023-02-19T10:55:40.709Z,100140.53
2023-02-19T10:58:44.954Z,100122.06
2023-02-19T11:02:17.356Z,100122.81
2023-02-19T11:05:20.098Z,100101.81
2023-02-19T11:08:23.443Z,100121.00
2023-02-19T11:11:32.717Z,100097.53
2023-02-19T11:14:35.466Z,100090.03
2023-02-19T11:17:37.688Z,100090.41
2023-02-19T11:20:47.180Z,100084.06
2023-02-19T11:23:49.421Z,100087.69
2023-02-19T11:26:51.699Z,100070.03
2023-02-19T11:29:54.060Z,100085.09
2023-02-19T11:32:57.083Z,100094.91
2023-02-19T11:36:28.697Z,100065.53
2023-02-19T11:39:32.223Z,100066.09
2023-02-19T11:42:45.055Z,100070.84
2023-02-19T11:46:09.669Z,100065.53
2023-02-19T11:49:39.912Z,100052.84
2023-02-19T11:53:00.931Z,100036.63
2023-02-19T11:56:19.427Z,100064.19
2023-02-19T11:59:32.169Z,100052.69
2023-02-19T12:03:11.780Z,100048.47
2023-02-19T12:06:23.817Z,100047.91
2023-02-19T12:09:36.860Z,100051.69
2023-02-19T12:12:38.895Z,100041.47
2023-02-19T12:15:57.147Z,100037.63
2023-02-19T12:19:42.240Z,100038.25
2023-02-19T12:23:17.571Z,100028.69
2023-02-19T12:26:24.064Z,100041.81
2023-02-19T12:29:48.993Z,100023.22
2023-02-19T12:33:03.674Z,100024.66
2023-02-19T12:36:22.131Z,100048.06
2023-02-19T12:39:57.701Z,100050.63
2023-02-19T12:43:02.767Z,100050.13
2023-02-19T12:46:10.149Z,100040.63
2023-02-19T12:49:30.407Z,100046.28
2023-02-19T12:52:36.826Z,100069.53
2023-02-19T12:55:43.323Z,100056.34
2023-02-19T12:58:49.941Z,100079.06
2023-02-19T13:02:02.033Z,100072.56
2023-02-19T13:05:25.794Z,100079.09
2023-02-19T13:09:03.522Z,100065.03
2023-02-19T13:12:18.064Z,100057.06
2023-02-19T13:15:41.893Z,100070.31
2023-02-19T13:18:50.227Z,100051.81
2023-02-19T13:22:32.420Z,100069.28
2023-02-19T13:26:09.243Z,100076.38
2023-02-19T13:29:33.562Z,100066.13
2023-02-19T13:32:50.158Z,100079.22
2023-02-19T13:36:06.051Z,100074.44
2023-02-19T13:39:08.274Z,100063.00
2023-02-19T13:42:24.584Z,100070.22
2023-02-19T13:45:47.040Z,100084.41
2023-02-19T13:49:25.080Z,100092.59
2023-02-19T13:52:30.219Z,100083.69
2023-02-19T13:55:49.791Z,100093.94
2023-02-19T13:58:54.257Z,100097.38
2023-02-19T14:01:56.476Z,100109.09
2023-02-19T14:05:01.536Z,100104.22
2023-02-19T14:08:03.798Z,100125.78
2023-02-19T14:11:06.032Z,100129.63
2023-02-19T14:14:28.385Z,100134.75
2023-02-19T14:17:40.355Z,100144.31
2023-02-19T14:20:45.905Z,100148.09
2023-02-19T14:23:53.863Z,100157.38
2023-02-19T14:26:57.293Z,100149.47
2023-02-19T14:29:59.959Z,100163.84
2023-02-19T14:33:10.613Z,100175.13
2023-02-19T14:36:27.080Z,100181.34
2023-02-19T14:39:31.517Z,100181.44
2023-02-19T14:42:34.064Z,100171.84
2023-02-19T14:45:43.492Z,100180.66
2023-02-19T14:48:48.524Z,100184.09
2023-02-19T14:51:54.030Z,100195.03
2023-02-19T14:55:00.516Z,100193.44
2023-02-19T14:58:22.916Z,100183.78
2023-02-19T15:01:27.086Z,100173.69
2023-02-19T15:04:36.655Z,100174.81
2023-02-19T15:07:38.921Z,100173.09
2023-02-19T15:10:44.285Z,100182.72
2023-02-19T15:13:56.234Z,100171.91
2023-02-19T15:17:01.454Z,100181.63
2023-02-19T15:20:10.751Z,100186.38
2023-02-19T15:23:20.288Z,100176.66
2023-02-19T15:26:27.506Z,100173.75
2023-02-19T15:29:30.109Z,100187.03
2023-02-19T15:32:33.028Z,100173.34
2023-02-19T15:35:36.491Z,100165.31
2023-02-19T15:38:39.111Z,100176.19
2023-02-19T15:41:42.839Z,100162.31
2023-02-19T15:44:51.729Z,100178.97
2023-02-19T15:48:05.833Z,100183.97
2023-02-19T15:51:13.708Z,100197.34
2023-02-19T15:54:45.000Z,100217.25
2023-02-19T15:57:53.420Z,100232.50
2023-02-19T16:01:08.363Z,100235.19
2023-02-19T16:04:13.869Z,100244.72
2023-02-19T16:07:31.890Z,100238.66
2023-02-19T16:10:34.041Z,100245.16
2023-02-19T16:13:36.201Z,100213.66
2023-02-19T16:16:39.669Z,100246.56
2023-02-19T16:19:57.748Z,100261.13
2023-02-19T16:23:06.102Z,100252.63
2023-02-19T16:26:08.267Z,100247.59
2023-02-19T16:29:18.538Z,100246.56
2023-02-19T16:32:20.859Z,100258.66
2023-02-19T16:35:42.219Z,100250.75
2023-02-19T16:39:12.937Z,100261.34
2023-02-19T16:42:15.220Z,100267.63
2023-02-19T16:45:18.485Z,100278.50
2023-02-19T16:48:22.367Z,100263.44
2023-02-19T16:51:25.900Z,100260.59
2023-02-19T16:54:28.067Z,100254.81
2023-02-19T16:57:30.325Z,100256.00
2023-02-19T17:00:32.876Z,100249.50
2023-02-19T17:03:36.895Z,100254.81
2023-02-19T17:06:39.456Z,100288.47
2023-02-19T17:09:41.705Z,100295.63
2023-02-19T17:12:43.832Z,100298.50
2023-02-19T17:15:46.054Z,100300.28
2023-02-19T17:18:48.255Z,100304.66
2023-02-19T17:21:50.460Z,100305.13
2023-02-19T17:24:54.591Z,100299.97
2023-02-19T17:27:56.795Z,100286.03
2023-02-19T17:30:59.004Z,100316.00
2023-02-19T17:34:01.235Z,100320.38
2023-02-19T17:37:03.530Z,100326.41
2023-02-19T17:40:31.914Z,100314.53
2023-02-19T17:43:35.201Z,100330.09
2023-02-19T17:46:38.378Z,100340.84
2023-02-19T17:49:40.600Z,100349.50
2023-02-19T17:52:42.759Z,100355.16
2023-02-19T17:55:45.091Z,100366.72
2023-02-19T17:58:47.619Z,100367.44
2023-02-19T18:01:49.807Z,100370.97
2023-02-19T18:04:52.036Z,100373.34
2023-02-19T18:07:54.328Z,100384.59
2023-02-19T18:10:56.620Z,100393.19
2023-02-19T18:13:59.627Z,100375.63
2023-02-19T18:17:02.178Z,100404.41
2023-02-19T18:20:05.030Z,100410.22
2023-02-19T18:23:07.626Z,100406.78
2023-02-19T18:26:10.861Z,100421.44
2023-02-19T18:29:13.212Z,100428.44
2023-02-19T18:32:15.500Z,100431.47
2023-02-19T18:35:19.293Z,100457.47
2023-02-19T18:38:22.646Z,100440.84
2023-02-19T18:41:24.842Z,100467.00
2023-02-19T18:44:27.002Z,100466.06
2023-02-19T18:47:29.206Z,100484.09
2023-02-19T18:50:31.565Z,100457.19
2023-02-19T18:53:33.778Z,100473.88
2023-02-19T18:56:46.101Z,100489.03
2023-02-19T18:59:48.328Z,100489.53
2023-02-19T19:02:51.220Z,100491.25
2023-02-19T19:05:53.744Z,100485.97
2023-02-19T19:08:56.049Z,100472.97
2023-02-19T19:11:58.297Z,100454.97
2023-02-19T19:15:00.439Z,100457.47
2023-02-19T19:18:02.854Z,100474.97
2023-02-19T19:21:05.771Z,100446.69
2023-02-19T19:24:08.981Z,100456.75
2023-02-19T19:27:11.302Z,100447.59
2023-02-19T19:30:14.228Z,100452.72
2023-02-19T19:33:17.674Z,100461.09
2023-02-19T19:36:22.667Z,100463.50
2023-02-19T19:39:24.823Z,100475.13
2023-02-19T19:42:27.156Z,100479.59
2023-02-19T19:45:29.360Z,100500.53
2023-02-19T19:48:33.099Z,100515.13
2023-02-19T19:51:35.455Z,100538.66
2023-02-19T19:54:37.639Z,100538.66
2023-02-19T19:57:41.015Z,100545.97
2023-02-19T20:00:43.276Z,100559.81
2023-02-19T20:03:45.527Z,100573.53
2023-02-19T20:06:48.091Z,100576.66
2023-02-19T20:09:50.386Z,100602.22
2023-02-19T20:12:52.616Z,100599.38
2023-02-19T20:15:54.905Z,100610.75
2023-02-19T20:18:57.115Z,100613.78
2023-02-19T20:21:59.524Z,100606.66
2023-02-19T20:25:01.640Z,100606.63
2023-02-19T20:28:03.904Z,100635.91
2023-02-19T20:31:08.128Z,100620.94
2023-02-19T20:34:10.352Z,100627.66
2023-02-19T20:37:12.647Z,100638.69
2023-02-19T20:40:17.247Z,100637.13
2023-02-19T20:43:20.144Z,100641.59
2023-02-19T20:46:42.362Z,100637.88
2023-02-19T20:49:49.443Z,100629.72
2023-02-19T20:52:55.970Z,100633.00
2023-02-19T20:56:16.725Z,100652.53
2023-02-19T20:59:24.170Z,100649.22
2023-02-19T21:05:56.027Z,100677.56
2023-02-19T21:09:15.188Z,100640.66
2023-02-19T21:12:31.698Z,100666.88
2023-02-19T21:15:34.788Z,100670.75
2023-02-19T21:21:59.592Z,100655.38
2023-02-19T21:25:01.734Z,100659.91
2023-02-19T21:28:05.311Z,100633.47
2023-02-19T21:31:07.873Z,100651.47
2023-02-19T21:34:11.930Z,100628.94
2023-02-19T21:37:14.345Z,100660.28
2023-02-19T21:40:16.981Z,100648.41
2023-02-19T21:43:19.225Z,100648.22
2023-02-19T21:46:22.379Z,100632.84
2023-02-19T21:49:24.598Z,100651.28
2023-02-19T21:52:27.056Z,100637.56
2023-02-19T21:55:29.246Z,100631.75
2023-02-19T21:58:31.537Z,100675.38
2023-02-19T22:01:38.654Z,100683.56
2023-02-19T22:04:41.167Z,100693.53
2023-02-19T22:07:43.418Z,100711.97
2023-02-19T22:10:45.575Z,100707.16
2023-02-19T22:13:47.812Z,100728.50
2023-02-19T22:16:50.105Z,100723.06
2023-02-19T22:19:52.382Z,100744.75
2023-02-19T22:22:54.538Z,100750.75
2023-02-19T22:25:56.736Z,100771.56
2023-02-19T22:28:59.611Z,100750.84
2023-02-19T22:32:02.057Z,100775.63
2023-02-19T22:35:04.279Z,100772.63
2023-02-19T22:38:06.552Z,100777.41
2023-02-19T22:41:08.807Z,100797.66
2023-02-19T22:44:11.452Z,100806.72
2023-02-19T22:47:13.799Z,100809.75
2023-02-19T22:50:18.697Z,100798.28
2023-02-19T22:53:20.886Z,100819.22
2023-02-19T22:56:25.224Z,100821.03
2023-02-19T22:59:27.438Z,100820.88
2023-02-19T23:02:29.556Z,100850.53
2023-02-19T23:05:32.391Z,100860.28
2023-02-19T23:08:34.507Z,100864.34
2023-02-19T23:11:39.405Z,100878.13
2023-02-19T23:14:41.685Z,100891.97
2023-02-19T23:17:43.832Z,100880.25
2023-02-19T23:20:46.052Z,100875.09
2023-02-19T23:23:48.258Z,100890.84
2023-02-19T23:26:52.007Z,100902.41
2023-02-19T23:29:55.348Z,100907.28
2023-02-19T23:32:57.476Z,100914.66
2023-02-19T23:35:59.695Z,100915.59
2023-02-19T23:39:01.845Z,100914.72
2023-02-19T23:42:04.091Z,100912.81
2023-02-19T23:45:06.517Z,100919.44
2023-02-19T23:48:08.746Z,100909.94
2023-02-19T23:51:11.281Z,100922.84
2023-02-19T23:54:13.663Z,100928.03
2023-02-19T23:57:15.838Z,100933.78
